createdAt,value
2019-05-09T00:00:15.118Z,94431.56
2019-05-09T00:02:44.453Z,94429.14
2019-05-09T00:05:13.993Z,94420.38
2019-05-09T00:07:44.008Z,94422.30
2019-05-09T00:10:14.308Z,94421.66
2019-05-09T00:12:43.866Z,94419.38
2019-05-09T00:15:13.726Z,94421.95
2019-05-09T00:17:43.934Z,94419.69
2019-05-09T00:20:33.220Z,94418.06
2019-05-09T00:23:03.292Z,94427.09
2019-05-09T00:25:33.976Z,94421.44
2019-05-09T00:28:04.276Z,94423.52
2019-05-09T00:30:51.098Z,94426.71
2019-05-09T00:33:25.151Z,94426.09
2019-05-09T00:35:54.519Z,94422.89
2019-05-09T00:38:24.762Z,94418.86
2019-05-09T00:40:58.604Z,94414.81
2019-05-09T00:43:25.158Z,94423.84
2019-05-09T00:46:14.146Z,94414.28
2019-05-09T00:48:57.517Z,94421.84
2019-05-09T00:51:28.235Z,94414.05
2019-05-09T00:53:57.572Z,94411.47
2019-05-09T00:56:26.940Z,94412.45
2019-05-09T00:58:56.273Z,94410.83
2019-05-09T01:01:25.599Z,94406.39
2019-05-09T01:03:54.947Z,94413.17
2019-05-09T01:06:24.314Z,94404.46
2019-05-09T01:08:53.951Z,94405.50
2019-05-09T01:11:24.361Z,94406.13
2019-05-09T01:13:54.515Z,94401.80
2019-05-09T01:16:26.342Z,94399.15
2019-05-09T01:18:55.663Z,94401.03
2019-05-09T01:21:25.043Z,94394.42
2019-05-09T01:23:54.398Z,94397.92
2019-05-09T01:26:24.257Z,94398.95
2019-05-09T01:28:54.214Z,94393.13
2019-05-09T01:31:24.308Z,94392.16
2019-05-09T01:34:09.951Z,94386.81
2019-05-09T01:36:57.091Z,94389.59
2019-05-09T01:39:26.565Z,94392.13
2019-05-09T01:41:55.995Z,94389.25
2019-05-09T01:44:25.329Z,94396.22
2019-05-09T01:46:54.710Z,94387.66
2019-05-09T01:49:24.154Z,94388.30
2019-05-09T01:51:53.862Z,94384.82
2019-05-09T01:54:24.874Z,94382.78
2019-05-09T01:56:54.264Z,94383.56
2019-05-09T01:59:24.390Z,94389.05
2019-05-09T02:01:54.354Z,94388.11
2019-05-09T02:04:24.366Z,94386.30
2019-05-09T02:06:53.976Z,94386.19
2019-05-09T02:09:23.657Z,94388.11
2019-05-09T02:11:54.519Z,94386.37
2019-05-09T02:14:36.365Z,94386.83
2019-05-09T02:17:19.210Z,94385.00
2019-05-09T02:19:48.590Z,94381.11
2019-05-09T02:22:36.749Z,94386.38
2019-05-09T02:25:07.602Z,94382.33
2019-05-09T02:27:36.947Z,94379.92
2019-05-09T02:30:08.665Z,94385.25
2019-05-09T02:32:38.121Z,94383.20
2019-05-09T02:35:08.806Z,94382.88
2019-05-09T02:37:39.087Z,94386.64
2019-05-09T02:40:09.963Z,94385.84
2019-05-09T02:42:40.189Z,94383.99
2019-05-09T02:45:10.579Z,94378.02
2019-05-09T02:47:39.910Z,94381.39
2019-05-09T02:50:10.105Z,94386.72
2019-05-09T02:52:40.155Z,94385.16
2019-05-09T02:55:10.734Z,94384.20
2019-05-09T02:57:40.764Z,94385.45
2019-05-09T03:00:44.482Z,94386.45
2019-05-09T03:03:19.901Z,94384.88
2019-05-09T03:05:49.648Z,94379.22
2019-05-09T03:08:19.478Z,94379.91
2019-05-09T03:10:49.421Z,94382.69
2019-05-09T03:13:19.299Z,94383.45
2019-05-09T03:15:50.711Z,94379.23
2019-05-09T03:18:20.051Z,94379.89
2019-05-09T03:21:08.904Z,94378.59
2019-05-09T03:23:38.788Z,94376.66
2019-05-09T03:26:10.120Z,94377.48
2019-05-09T03:28:49.602Z,94377.34
2019-05-09T03:31:20.536Z,94379.48
2019-05-09T03:33:50.440Z,94376.74
2019-05-09T03:36:20.021Z,94374.50
2019-05-09T03:38:49.374Z,94367.94
2019-05-09T03:41:18.962Z,94375.55
2019-05-09T03:43:48.425Z,94375.20
2019-05-09T03:46:33.935Z,94371.17
2019-05-09T03:49:03.795Z,94378.22
2019-05-09T03:51:33.191Z,94373.58
2019-05-09T03:54:02.524Z,94373.31
2019-05-09T03:56:37.552Z,94377.33
2019-05-09T03:59:08.341Z,94375.98
2019-05-09T04:01:38.253Z,94375.70
2019-05-09T04:04:08.782Z,94376.50
2019-05-09T04:06:39.106Z,94376.34
2019-05-09T04:09:08.992Z,94368.75
2019-05-09T04:11:38.395Z,94371.92
2019-05-09T04:14:11.624Z,94366.78
2019-05-09T04:16:41.172Z,94367.89
2019-05-09T04:19:10.528Z,94366.84
2019-05-09T04:21:39.966Z,94366.30
2019-05-09T04:24:09.299Z,94361.60
2019-05-09T04:26:48.379Z,94360.13
2019-05-09T04:29:18.435Z,94361.67
2019-05-09T04:31:48.423Z,94357.30
2019-05-09T04:34:18.419Z,94350.56
2019-05-09T04:36:48.485Z,94349.61
2019-05-09T04:39:23.396Z,94348.48
2019-05-09T04:41:49.182Z,94343.34
2019-05-09T04:44:32.862Z,94345.59
2019-05-09T04:47:03.615Z,94336.59
2019-05-09T04:49:39.327Z,94334.69
2019-05-09T04:52:04.778Z,94332.45
2019-05-09T04:54:34.108Z,94336.03
2019-05-09T04:57:03.538Z,94338.45
2019-05-09T04:59:32.895Z,94332.03
2019-05-09T05:02:21.195Z,94335.24
2019-05-09T05:04:50.559Z,94335.75
2019-05-09T05:07:19.946Z,94331.23
2019-05-09T05:09:49.299Z,94332.53
2019-05-09T05:12:18.860Z,94329.33
2019-05-09T05:14:48.232Z,94324.14
2019-05-09T05:17:18.195Z,94318.33
2019-05-09T05:19:47.889Z,94320.59
2019-05-09T05:22:23.092Z,94317.83
2019-05-09T05:24:59.293Z,94321.22
2019-05-09T05:27:27.777Z,94321.22
2019-05-09T05:29:58.457Z,94325.09
2019-05-09T05:32:33.783Z,94316.52
2019-05-09T05:35:22.109Z,94321.84
2019-05-09T05:37:51.615Z,94317.31
2019-05-09T05:40:20.962Z,94314.40
2019-05-09T05:42:50.324Z,94309.16
2019-05-09T05:45:19.753Z,94307.98
2019-05-09T05:48:02.066Z,94305.64
2019-05-09T05:50:31.455Z,94296.31
2019-05-09T05:53:00.854Z,94297.91
2019-05-09T05:55:30.221Z,94301.27
2019-05-09T05:58:01.758Z,94300.59
2019-05-09T06:00:31.483Z,94301.34
2019-05-09T06:03:03.931Z,94303.75
2019-05-09T06:05:33.300Z,94302.35
2019-05-09T06:08:02.747Z,94301.09
2019-05-09T06:10:32.102Z,94295.30
2019-05-09T06:13:04.486Z,94301.55
2019-05-09T06:15:33.890Z,94305.70
2019-05-09T06:18:03.329Z,94301.95
2019-05-09T06:20:32.670Z,94299.27
2019-05-09T06:23:02.212Z,94294.80
2019-05-09T06:25:31.544Z,94291.24
2019-05-09T06:28:03.273Z,94285.70
2019-05-09T06:30:32.920Z,94284.66
2019-05-09T06:33:05.059Z,94278.34
2019-05-09T06:35:33.908Z,94285.92
2019-05-09T06:38:03.333Z,94283.31
2019-05-09T06:40:32.746Z,94282.83
2019-05-09T06:43:18.539Z,94275.98
2019-05-09T06:46:07.923Z,94275.47
2019-05-09T06:48:37.864Z,94280.81
2019-05-09T06:51:07.511Z,94271.38
2019-05-09T06:53:38.031Z,94273.47
2019-05-09T06:56:07.668Z,94270.74
2019-05-09T06:58:38.302Z,94269.91
2019-05-09T07:01:25.351Z,94263.29
2019-05-09T07:03:59.633Z,94261.20
2019-05-09T07:06:38.110Z,94255.86
2019-05-09T07:09:18.922Z,94259.73
2019-05-09T07:11:48.751Z,94255.02
2019-05-09T07:14:33.946Z,94248.77
2019-05-09T07:17:03.918Z,94249.00
2019-05-09T07:19:33.302Z,94239.14
2019-05-09T07:22:11.074Z,94242.23
2019-05-09T07:25:18.603Z,94232.56
2019-05-09T07:27:49.754Z,94233.31
2019-05-09T07:30:44.151Z,94239.50
2019-05-09T07:33:32.878Z,94233.39
2019-05-09T07:36:02.887Z,94227.77
2019-05-09T07:38:32.979Z,94223.04
2019-05-09T07:41:02.627Z,94221.68
2019-05-09T07:43:33.432Z,94219.64
2019-05-09T07:46:28.860Z,94227.28
2019-05-09T07:48:59.269Z,94221.67
2019-05-09T07:51:28.788Z,94211.86
2019-05-09T07:53:59.088Z,94209.52
2019-05-09T07:56:28.685Z,94205.36
2019-05-09T07:58:58.624Z,94204.67
2019-05-09T08:01:28.327Z,94208.72
2019-05-09T08:03:58.671Z,94201.45
2019-05-09T08:06:28.974Z,94198.06
2019-05-09T08:08:58.514Z,94200.56
2019-05-09T08:11:28.837Z,94198.76
2019-05-09T08:13:58.985Z,94194.72
2019-05-09T08:16:30.593Z,94190.97
2019-05-09T08:19:02.485Z,94184.23
2019-05-09T08:21:32.350Z,94182.73
2019-05-09T08:24:01.687Z,94182.96
2019-05-09T08:26:30.913Z,94180.44
2019-05-09T08:29:00.699Z,94180.36
2019-05-09T08:31:30.128Z,94179.79
2019-05-09T08:34:00.861Z,94176.77
2019-05-09T08:36:30.091Z,94178.66
2019-05-09T08:38:59.813Z,94177.27
2019-05-09T08:41:29.443Z,94174.48
2019-05-09T08:43:59.109Z,94171.60
2019-05-09T08:46:28.761Z,94172.45
2019-05-09T08:48:58.362Z,94168.14
2019-05-09T08:51:52.736Z,94168.69
2019-05-09T08:54:30.401Z,94163.20
2019-05-09T08:56:59.789Z,94155.34
2019-05-09T08:59:29.175Z,94147.00
2019-05-09T09:02:12.406Z,94149.59
2019-05-09T09:04:29.714Z,94152.63
2019-05-09T09:06:59.094Z,94147.98
2019-05-09T09:09:28.726Z,94145.72
2019-05-09T09:11:58.529Z,94148.27
2019-05-09T09:14:28.088Z,94148.34
2019-05-09T09:16:57.709Z,94143.47
2019-05-09T09:19:28.024Z,94146.59
2019-05-09T09:22:00.453Z,94144.63
2019-05-09T09:24:28.698Z,94144.19
2019-05-09T09:26:58.095Z,94141.00
2019-05-09T09:29:28.387Z,94142.58
2019-05-09T09:31:57.909Z,94140.33
2019-05-09T09:34:29.962Z,94137.50
2019-05-09T09:37:04.312Z,94137.20
2019-05-09T09:39:31.391Z,94136.03
2019-05-09T09:42:01.300Z,94131.35
2019-05-09T09:44:30.646Z,94129.14
2019-05-09T09:47:00.419Z,94123.66
2019-05-09T09:49:29.846Z,94127.67
2019-05-09T09:51:59.624Z,94119.53
2019-05-09T09:54:30.286Z,94120.94
2019-05-09T09:56:59.731Z,94116.70
2019-05-09T09:59:48.598Z,94110.41
2019-05-09T10:02:20.731Z,94103.03
2019-05-09T10:04:50.135Z,94097.95
2019-05-09T10:07:19.895Z,94099.26
2019-05-09T10:09:49.809Z,94100.23
2019-05-09T10:12:19.144Z,94105.16
2019-05-09T10:14:57.605Z,94093.91
2019-05-09T10:17:51.281Z,94093.52
2019-05-09T10:20:34.231Z,94089.02
2019-05-09T10:23:11.744Z,94089.28
2019-05-09T10:25:35.268Z,94091.50
2019-05-09T10:28:04.696Z,94090.92
2019-05-09T10:30:38.024Z,94082.80
2019-05-09T10:33:08.952Z,94079.47
2019-05-09T10:35:39.144Z,94071.66
2019-05-09T10:38:09.096Z,94074.58
2019-05-09T10:40:40.290Z,94071.35
2019-05-09T10:43:34.624Z,94070.15
2019-05-09T10:46:19.304Z,94069.44
2019-05-09T10:48:58.628Z,94066.16
2019-05-09T10:51:27.719Z,94060.06
2019-05-09T10:53:58.771Z,94065.55
2019-05-09T10:56:28.403Z,94070.22
2019-05-09T10:58:58.649Z,94067.88
2019-05-09T11:01:29.801Z,94065.94
2019-05-09T11:03:59.488Z,94060.73
2019-05-09T11:06:29.183Z,94061.89
2019-05-09T11:08:59.314Z,94059.98
2019-05-09T11:11:29.043Z,94062.90
2019-05-09T11:13:59.177Z,94063.18
2019-05-09T11:16:41.983Z,94066.16
2019-05-09T11:18:59.886Z,94057.42
2019-05-09T11:21:29.272Z,94067.15
2019-05-09T11:23:58.863Z,94063.63
2019-05-09T11:26:28.851Z,94058.42
2019-05-09T11:28:58.946Z,94058.24
2019-05-09T11:31:29.857Z,94053.21
2019-05-09T11:33:59.364Z,94059.03
2019-05-09T11:36:28.862Z,94058.98
2019-05-09T11:39:00.565Z,94062.22
2019-05-09T11:41:30.505Z,94054.63
2019-05-09T11:44:00.131Z,94056.20
2019-05-09T11:46:29.562Z,94059.43
2019-05-09T11:48:59.431Z,94066.75
2019-05-09T11:51:29.544Z,94067.48
2019-05-09T11:53:59.028Z,94062.69
2019-05-09T11:56:28.495Z,94061.58
2019-05-09T11:58:58.239Z,94067.73
2019-05-09T12:01:29.298Z,94067.21
2019-05-09T12:03:58.803Z,94065.41
2019-05-09T12:06:29.227Z,94066.09
2019-05-09T12:08:59.158Z,94071.20
2019-05-09T12:11:30.929Z,94067.98
2019-05-09T12:14:01.910Z,94063.61
2019-05-09T12:16:31.654Z,94060.33
2019-05-09T12:19:05.536Z,94059.67
2019-05-09T12:21:42.307Z,94049.03
2019-05-09T12:24:08.819Z,94045.20
2019-05-09T12:26:39.069Z,94048.09
2019-05-09T12:29:08.823Z,94049.92
2019-05-09T12:31:38.944Z,94046.73
2019-05-09T12:34:09.363Z,94050.18
2019-05-09T12:36:41.323Z,94044.39
2019-05-09T12:39:11.200Z,94038.94
2019-05-09T12:41:40.915Z,94038.94
2019-05-09T12:44:10.314Z,94038.56
2019-05-09T12:46:39.794Z,94023.58
2019-05-09T12:49:09.238Z,94010.86
2019-05-09T12:51:38.785Z,94009.58
2019-05-09T12:54:08.774Z,94003.27
2019-05-09T12:56:38.714Z,93997.34
2019-05-09T12:59:11.424Z,93992.36
2019-05-09T13:01:42.202Z,93976.20
2019-05-09T13:04:11.578Z,93968.36
2019-05-09T13:06:41.327Z,93979.15
2019-05-09T13:09:10.776Z,93982.98
2019-05-09T13:11:40.146Z,93984.95
2019-05-09T13:14:10.201Z,93987.15
2019-05-09T13:16:53.569Z,93974.92
2019-05-09T13:19:22.655Z,93976.42
2019-05-09T13:21:52.226Z,93966.86
2019-05-09T13:24:22.158Z,93958.05
2019-05-09T13:26:51.817Z,93956.80
2019-05-09T13:29:23.340Z,93958.47
2019-05-09T13:31:54.586Z,93958.89
2019-05-09T13:34:28.194Z,93949.73
2019-05-09T13:36:59.058Z,93953.80
2019-05-09T13:39:28.358Z,93952.58
2019-05-09T13:41:58.486Z,93946.73
2019-05-09T13:44:27.950Z,93937.77
2019-05-09T13:46:58.377Z,93930.31
2019-05-09T13:49:28.681Z,93927.59
2019-05-09T13:52:04.605Z,93919.94
2019-05-09T13:54:31.466Z,93924.64
2019-05-09T13:57:01.559Z,93935.09
2019-05-09T13:59:31.459Z,93931.81
2019-05-09T14:02:02.835Z,93929.84
2019-05-09T14:04:34.528Z,93928.98
2019-05-09T14:07:04.789Z,93933.36
2019-05-09T14:09:34.248Z,93933.36
2019-05-09T14:12:10.495Z,93915.74
2019-05-09T14:14:40.612Z,93915.02
2019-05-09T14:17:13.745Z,93918.58
2019-05-09T14:19:47.037Z,93916.41
2019-05-09T14:22:17.613Z,93916.22
2019-05-09T14:24:48.330Z,93926.83
2019-05-09T14:27:18.829Z,93924.09
2019-05-09T14:29:51.755Z,93926.29
2019-05-09T14:32:21.230Z,93921.47
2019-05-09T14:34:50.691Z,93911.25
2019-05-09T14:37:20.111Z,93906.38
2019-05-09T14:39:57.892Z,93900.83
2019-05-09T14:42:20.656Z,93901.39
2019-05-09T14:44:50.034Z,93902.11
2019-05-09T14:47:19.466Z,93903.88
2019-05-09T14:49:50.604Z,93898.84
2019-05-09T14:52:23.034Z,93895.86
2019-05-09T14:54:52.455Z,93894.22
2019-05-09T14:57:21.896Z,93890.95
2019-05-09T14:59:51.567Z,93896.34
2019-05-09T15:02:21.451Z,93901.45
2019-05-09T15:04:50.827Z,93895.63
2019-05-09T15:07:20.211Z,93900.64
2019-05-09T15:09:49.584Z,93903.59
2019-05-09T15:12:19.039Z,93901.77
2019-05-09T15:14:48.361Z,93900.30
2019-05-09T15:17:18.505Z,93893.35
2019-05-09T15:19:59.419Z,93890.73
2019-05-09T15:22:20.906Z,93888.66
2019-05-09T15:24:51.195Z,93889.58
2019-05-09T15:27:21.071Z,93890.56
2019-05-09T15:29:51.004Z,93884.59
2019-05-09T15:32:22.440Z,93891.08
2019-05-09T15:34:51.803Z,93891.08
2019-05-09T15:37:21.765Z,93884.95
2019-05-09T15:39:51.593Z,93878.00
2019-05-09T15:42:22.524Z,93885.06
2019-05-09T15:44:52.190Z,93884.19
2019-05-09T15:47:27.695Z,93889.86
2019-05-09T15:50:15.536Z,93886.20
2019-05-09T15:52:32.636Z,93885.42
2019-05-09T15:55:02.020Z,93877.41
2019-05-09T15:57:33.082Z,93861.31
2019-05-09T16:00:02.845Z,93863.10
2019-05-09T16:02:39.077Z,93867.66
2019-05-09T16:05:10.620Z,93870.37
2019-05-09T16:07:40.847Z,93869.12
2019-05-09T16:10:10.349Z,93874.73
2019-05-09T16:12:41.837Z,93876.16
2019-05-09T16:15:11.694Z,93872.34
2019-05-09T16:17:42.545Z,93873.09
2019-05-09T16:20:12.132Z,93874.09
2019-05-09T16:22:41.959Z,93872.78
2019-05-09T16:25:13.291Z,93873.06
2019-05-09T16:27:42.722Z,93876.09
2019-05-09T16:30:14.267Z,93871.27
2019-05-09T16:32:43.602Z,93874.58
2019-05-09T16:35:13.430Z,93880.70
2019-05-09T16:38:01.329Z,93876.39
2019-05-09T16:40:16.240Z,93876.39
2019-05-09T16:42:47.510Z,93870.98
2019-05-09T16:45:21.241Z,93864.89
2019-05-09T16:48:02.055Z,93867.22
2019-05-09T16:50:31.827Z,93869.45
2019-05-09T16:53:01.241Z,93872.95
2019-05-09T16:55:38.454Z,93870.05
2019-05-09T16:58:10.302Z,93870.14
2019-05-09T17:00:44.315Z,93873.66
2019-05-09T17:03:19.196Z,93874.75
2019-05-09T17:06:33.828Z,93887.90
2019-05-09T17:09:03.756Z,93890.19
2019-05-09T17:11:33.233Z,93886.78
2019-05-09T17:14:03.880Z,93883.18
2019-05-09T17:16:33.380Z,93888.87
2019-05-09T17:19:05.504Z,93877.16
2019-05-09T17:21:59.258Z,93880.78
2019-05-09T17:24:29.976Z,93888.20
2019-05-09T17:27:01.064Z,93886.48
2019-05-09T17:29:33.595Z,93882.69
2019-05-09T17:32:03.027Z,93892.80
2019-05-09T17:34:38.117Z,93887.17
2019-05-09T17:37:10.001Z,93889.03
2019-05-09T17:39:39.786Z,93885.53
2019-05-09T17:42:10.264Z,93887.56
2019-05-09T17:44:48.592Z,93884.92
2019-05-09T17:47:17.559Z,93878.72
2019-05-09T17:49:48.222Z,93867.48
2019-05-09T17:52:19.429Z,93863.78
2019-05-09T17:55:01.028Z,93869.81
2019-05-09T17:57:30.380Z,93866.28
2019-05-09T18:00:01.977Z,93857.44
2019-05-09T18:02:34.063Z,93853.47
2019-05-09T18:05:03.777Z,93853.77
2019-05-09T18:07:33.174Z,93851.64
2019-05-09T18:10:02.621Z,93842.73
2019-05-09T18:12:32.021Z,93836.44
2019-05-09T18:15:01.789Z,93836.92
2019-05-09T18:17:32.095Z,93836.84
2019-05-09T18:20:03.087Z,93831.92
2019-05-09T18:22:35.999Z,93837.26
2019-05-09T18:25:08.242Z,93833.25
2019-05-09T18:27:38.776Z,93837.84
2019-05-09T18:30:08.762Z,93847.44
2019-05-09T18:33:00.112Z,93844.92
2019-05-09T18:35:38.659Z,93856.08
2019-05-09T18:38:08.410Z,93856.53
2019-05-09T18:40:39.037Z,93855.72
2019-05-09T18:43:14.636Z,93861.43
2019-05-09T18:46:08.222Z,93864.63
2019-05-09T18:48:38.306Z,93871.44
2019-05-09T18:51:07.836Z,93878.50
2019-05-09T18:53:37.576Z,93877.25
2019-05-09T18:56:10.347Z,93878.34
2019-05-09T18:58:52.542Z,93876.05
2019-05-09T19:01:21.995Z,93874.15
2019-05-09T19:03:52.119Z,93874.66
2019-05-09T19:06:39.699Z,93872.36
2019-05-09T19:09:13.742Z,93870.12
2019-05-09T19:11:45.963Z,93862.42
2019-05-09T19:14:17.426Z,93865.66
2019-05-09T19:17:03.047Z,93865.92
2019-05-09T19:19:49.565Z,93871.02
2019-05-09T19:22:22.843Z,93874.08
2019-05-09T19:24:52.402Z,93878.82
2019-05-09T19:27:22.852Z,93879.22
2019-05-09T19:29:56.259Z,93882.09
2019-05-09T19:32:46.332Z,93883.63
2019-05-09T19:35:16.110Z,93891.47
2019-05-09T19:37:45.533Z,93897.77
2019-05-09T19:40:20.964Z,93886.53
2019-05-09T19:42:57.286Z,93892.73
2019-05-09T19:45:30.947Z,93886.95
2019-05-09T19:48:03.824Z,93892.02
2019-05-09T19:50:34.397Z,93887.30
2019-05-09T19:53:05.114Z,93879.70
2019-05-09T19:55:40.848Z,93871.25
2019-05-09T19:58:12.745Z,93873.51
2019-05-09T20:00:43.344Z,93864.44
2019-05-09T20:03:15.410Z,93864.75
2019-05-09T20:05:45.939Z,93873.63
2019-05-09T20:08:19.820Z,93865.04
2019-05-09T20:11:11.327Z,93873.67
2019-05-09T20:13:59.670Z,93877.58
2019-05-09T20:16:41.990Z,93875.40
2019-05-09T20:19:16.824Z,93874.05
2019-05-09T20:21:46.422Z,93883.14
2019-05-09T20:24:27.968Z,93874.95
2019-05-09T20:27:01.029Z,93874.97
2019-05-09T20:29:31.141Z,93888.45
2019-05-09T20:32:02.500Z,93883.25
2019-05-09T20:34:33.698Z,93875.14
2019-05-09T20:37:04.916Z,93885.76
2019-05-09T20:39:34.517Z,93888.94
2019-05-09T20:42:05.478Z,93877.64
2019-05-09T20:44:40.269Z,93875.35
2019-05-09T20:47:10.168Z,93878.05
2019-05-09T20:49:40.768Z,93875.51
2019-05-09T20:52:10.726Z,93863.52
2019-05-09T20:54:43.185Z,93878.31
2019-05-09T20:57:13.120Z,93872.78
2019-05-09T20:59:43.425Z,93867.16
2019-05-09T21:02:15.803Z,93869.65
2019-05-09T21:04:46.640Z,93856.98
2019-05-09T21:07:16.910Z,93853.91
2019-05-09T21:09:47.181Z,93854.86
2019-05-09T21:12:20.156Z,93840.27
2019-05-09T21:14:51.844Z,93838.77
2019-05-09T21:17:22.122Z,93840.77
2019-05-09T21:20:01.240Z,93845.89
2019-05-09T21:22:30.875Z,93843.91
2019-05-09T21:25:00.436Z,93853.33
2019-05-09T21:27:32.803Z,93842.63
2019-05-09T21:30:04.825Z,93845.23
2019-05-09T21:32:34.810Z,93848.30
2019-05-09T21:35:04.185Z,93839.03
2019-05-09T21:37:39.861Z,93835.50
2019-05-09T21:40:13.180Z,93838.62
2019-05-09T21:42:42.990Z,93847.41
2019-05-09T21:45:12.752Z,93844.03
2019-05-09T21:47:44.194Z,93845.99
2019-05-09T21:50:15.082Z,93849.78
2019-05-09T21:52:44.500Z,93845.48
2019-05-09T21:55:13.889Z,93845.78
2019-05-09T21:57:43.279Z,93850.36
2019-05-09T22:00:21.600Z,93853.67
2019-05-09T22:02:51.106Z,93865.48
2019-05-09T22:05:20.797Z,93862.61
2019-05-09T22:07:50.480Z,93861.68
2019-05-09T22:10:20.226Z,93869.51
2019-05-09T22:12:49.646Z,93867.90
2019-05-09T22:15:18.999Z,93868.95
2019-05-09T22:17:48.411Z,93868.63
2019-05-09T22:20:19.084Z,93873.05
2019-05-09T22:22:49.086Z,93862.64
2019-05-09T22:25:19.199Z,93855.33
2019-05-09T22:27:48.569Z,93858.32
2019-05-09T22:30:22.622Z,93852.92
2019-05-09T22:32:52.077Z,93848.94
2019-05-09T22:35:21.429Z,93844.90
2019-05-09T22:37:50.913Z,93836.88
2019-05-09T22:40:20.391Z,93837.84
2019-05-09T22:42:49.799Z,93826.73
2019-05-09T22:45:20.021Z,93818.93
2019-05-09T22:47:49.900Z,93826.31
2019-05-09T22:50:19.264Z,93826.39
2019-05-09T22:52:48.715Z,93825.52
2019-05-09T22:55:18.527Z,93813.48
2019-05-09T22:57:49.032Z,93824.19
2019-05-09T23:00:18.593Z,93824.56
2019-05-09T23:02:48.045Z,93816.00
2019-05-09T23:05:17.428Z,93816.33
2019-05-09T23:07:46.897Z,93819.75
2019-05-09T23:10:16.372Z,93812.73
2019-05-09T23:12:45.801Z,93804.94
2019-05-09T23:15:16.830Z,93814.81
2019-05-09T23:17:46.287Z,93815.80
2019-05-09T23:20:33.806Z,93818.34
2019-05-09T23:23:23.800Z,93819.27
2019-05-09T23:25:53.224Z,93807.64
2019-05-09T23:28:23.074Z,93818.56
2019-05-09T23:30:54.458Z,93818.68
2019-05-09T23:33:25.356Z,93806.96
2019-05-09T23:35:54.779Z,93812.97
2019-05-09T23:38:24.207Z,93817.16
2019-05-09T23:40:53.556Z,93806.37
2019-05-09T23:43:22.967Z,93802.98
2019-05-09T23:45:52.354Z,93794.76
2019-05-09T23:48:21.878Z,93796.61
2019-05-09T23:50:51.317Z,93792.49
2019-05-09T23:53:31.731Z,93786.56
2019-05-09T23:56:19.036Z,93789.67
2019-05-09T23:59:05.974Z,93790.13
